• Join FlightAware (Why Join?)
  • Login
  • US Flag 
04:46PM EST


 

Airport Tracker/Info


-or-


 

Live Flight TrackerFlight Track Log ✈ N569SC ✈ 24-Apr-2013 ✈ KPTK - KTPA

Flight Track Log - Related Links

Times and Time Zones

All times are in EDT time to prevent confusion due to time zone crossing. See the N569SC flight status page for this flight to view local times or setup timezone preferences in your user account.

Time Position Orientation Groundspeed Altitude Reporting Facility
EDT Latitude Longitude Course Direction KTS MPH feet Rate Location/Type
11:58AM 42.6622 -83.4492 272° West 218 251 1,900  Level Cleveland Center
11:59AM 42.6642 -83.5283 272° West 286 329 4,800 3,480 Climbing Cleveland Center
12:00PM 42.7375 -83.5175 North 306 352 8,700 3,540 Climbing Cleveland Center
12:01PM 42.7531 -83.4758 63° Northeast 312 359 9,700 1,800 Climbing Cleveland Center
12:02PM 42.7764 -83.3808 71° East 338 389 11,000 2,400 Climbing Cleveland Center
12:03PM 42.7436 -83.2661 111° Southeast 301 346 14,600 3,600 Climbing Cleveland Center
12:04PM 42.6667 -83.2544 174° South 242 278 18,300 3,540 Climbing Cleveland Center
12:05PM 42.5956 -83.2656 187° South 227 261 21,700 3,060 Climbing Cleveland Center
12:06PM 42.5289 -83.2711 184° South 232 267 24,500 2,400 Climbing Cleveland Center
12:07PM 42.4619 -83.2767 184° South 238 274 26,500 1,800 Climbing Cleveland Center
12:08PM 42.3889 -83.2819 183° South 258 297 28,100 1,680 Climbing Cleveland Center
12:09PM 42.3033 -83.2925 185° South 287 330 29,900 1,800 Climbing Cleveland Center
12:10PM 42.2133 -83.2969 182° South 298 343 31,700 1,860 Climbing Cleveland Center
12:12PM 42.0442 -83.3122 184° South 311 358 35,500 1,920 Climbing Cleveland Center
12:13PM 41.9647 -83.3200 184° South 305 351 37,500 1,800 Climbing Cleveland Center
12:14PM 41.8856 -83.3250 183° South 292 336 39,100 1,260 Climbing Cleveland Center
12:15PM 41.8081 -83.3328 184° South 292 336 40,100 720 Climbing Cleveland Center
12:16PM 41.7225 -83.3375 182° South 297 342 40,600 540 Climbing Cleveland Center
12:17PM 41.6308 -83.3392 181° South 312 359 41,200 540 Climbing Cleveland Center
12:18PM 41.5372 -83.3294 176° South 327 376 41,700 540 Climbing Cleveland Center
12:19PM 41.4394 -83.3225 177° South 348 400 42,300 480 Climbing Cleveland Center
12:20PM 41.3417 -83.3103 175° South 354 407 42,700 300 Climbing Cleveland Center
12:21PM 41.2417 -83.3061 178° South 354 407 43,000 120 Climbing Cleveland Center
12:22PM 41.1378 -83.2933 175° South 366 421 43,000  Level Cleveland Center
12:23PM 41.0358 -83.2808 175° South 366 421 43,000  Level Cleveland Center
12:24PM 40.8272 -83.2625 176° South 396 456 43,000  Level Indianapolis Center
12:26PM 40.7169 -83.2517 176° South 404 465 43,000  Level Indianapolis Center
12:27PM 40.6022 -83.2414 176° South 409 471 43,000  Level Indianapolis Center
12:28PM 40.4881 -83.2311 176° South 408 470 43,000  Level Indianapolis Center
12:29PM 40.3742 -83.2217 176° South 406 467 43,000  Level Indianapolis Center
12:30PM 40.2608 -83.2114 176° South 405 466 43,000  Level Indianapolis Center
12:31PM 40.1283 -83.1986 176° South 404 465 43,000  Level Indianapolis Center
12:32PM 40.0144 -83.1892 176° South 404 465 43,000  Level Indianapolis Center
12:33PM 39.9000 -83.1783 176° South 404 465 43,000  Level Indianapolis Center
12:34PM 39.7844 -83.1683 176° South 406 467 43,000  Level Indianapolis Center
12:35PM 39.6692 -83.1578 176° South 407 468 43,000  Level Indianapolis Center
12:36PM 39.5544 -83.1483 176° South 407 468 43,000  Level Indianapolis Center
12:37PM 39.4389 -83.1383 176° South 410 472 43,000  Level Indianapolis Center
12:38PM 39.3250 -83.1272 176° South 408 470 43,000  Level Indianapolis Center
12:39PM 39.2108 -83.1175 176° South 407 468 43,000  Level Indianapolis Center
12:40PM 39.0981 -83.1078 176° South 404 465 43,000  Level Indianapolis Center
12:41PM 38.9839 -83.0969 176° South 410 472 43,000  Level Indianapolis Center
12:42PM 38.8717 -83.0869 176° South 406 467 43,000  Level Indianapolis Center
12:43PM 38.7583 -83.0783 177° South 407 468 43,000  Level Indianapolis Center
12:44PM 38.6303 -83.0675 176° South 412 474 43,000  Level Indianapolis Center
12:45PM 38.5158 -83.0575 176° South 411 473 43,000  Level Indianapolis Center
12:46PM 38.4011 -83.0478 176° South 411 473 43,000  Level Indianapolis Center
12:47PM 38.2664 -83.0367 176° South 414 476 43,000  Level Indianapolis Center
12:48PM 38.1519 -83.0253 176° South 414 476 43,000  Level Indianapolis Center
12:49PM 38.0375 -83.0175 177° South 410 472 43,000  Level Indianapolis Center
12:50PM 37.9222 -83.0083 176° South 414 476 43,000  Level Indianapolis Center
12:51PM 37.8061 -82.9972 176° South 415 478 43,000  Level Indianapolis Center
12:52PM 37.6897 -82.9889 177° South 417 480 43,000  Level Indianapolis Center
12:53PM 37.5731 -82.9786 176° South 418 481 43,000  Level Indianapolis Center
12:54PM 37.4364 -82.9678 176° South 421 484 43,000  Level Indianapolis Center
12:55PM 37.3189 -82.9572 176° South 422 486 43,000  Level Indianapolis Center
12:56PM 37.2017 -82.9472 176° South 421 484 43,000  Level Indianapolis Center
12:57PM 37.0844 -82.9375 176° South 421 484 43,000  Level Indianapolis Center
12:58PM 36.9569 -82.9267 176° South 424 488 43,000  Level Indianapolis Center
12:59PM 36.8364 -82.9153 176° South 431 496 43,000  Level Indianapolis Center
01:01PM 36.6850 -82.9050 177° South 442 509 43,000  Level Atlanta Center
01:02PM 36.5681 -82.8964 177° South 437 503 43,000  Level Atlanta Center
01:03PM 36.4492 -82.8850 176° South 431 496 43,000  Level Atlanta Center
01:04PM 36.3322 -82.8764 177° South 426 490 43,000  Level Atlanta Center
01:05PM 36.2153 -82.8678 177° South 426 490 43,000  Level Atlanta Center
01:06PM 36.0942 -82.8567 176° South 421 484 43,000  Level Atlanta Center
01:07PM 35.9753 -82.8481 177° South 433 498 43,000  Level Atlanta Center
01:08PM 35.8583 -82.8369 176° South 433 498 43,000  Level Atlanta Center
01:09PM 35.7372 -82.8261 176° South 433 498 43,000  Level Atlanta Center
01:10PM 35.6183 -82.8175 177° South 428 493 43,000  Level Atlanta Center
01:11PM 35.4972 -82.8092 177° South 428 493 43,000  Level Atlanta Center
01:12PM 35.3803 -82.8008 177° South 433 498 43,000  Level Atlanta Center
01:13PM 35.2592 -82.7925 177° South 428 493 43,000  Level Atlanta Center
01:14PM 35.1403 -82.7814 176° South 428 493 43,000  Level Atlanta Center
01:15PM 35.0294 -82.7756 178° South 438 504 43,000  Level Atlanta Center
01:16PM 34.9061 -82.7622 175° South 444 511 43,000  Level Atlanta Center
01:17PM 34.7850 -82.7539 177° South 438 504 43,000  Level Atlanta Center
01:18PM 34.6661 -82.7433 176° South 443 510 43,000  Level Atlanta Center
01:19PM 34.5281 -82.7303 176° South 443 510 43,000  Level Atlanta Center
01:20PM 34.4092 -82.7244 178° South 438 504 43,000  Level Atlanta Center
01:21PM 34.2881 -82.7139 176° South 444 511 43,000  Level Atlanta Center
01:22PM 34.1647 -82.7031 176° South 435 501 43,000  Level Atlanta Center
01:23PM 34.0414 -82.6950 177° South 446 513 43,000  Level Atlanta Center
01:24PM 33.9203 -82.6844 176° South 438 504 43,000  Level Atlanta Center
01:25PM 33.7992 -82.6764 177° South 444 511 43,000  Level Atlanta Center
01:26PM 33.6739 -82.6658 176° South 449 517 43,000  Level Atlanta Center
01:27PM 33.5672 -82.6578 176° South 441 507 43,000  Level Atlanta Center
01:28PM 33.4419 -82.6497 177° South 441 507 43,000  Level Atlanta Center
01:29PM 33.3042 -82.6419 177° South 441 507 43,000  Level Atlanta Center
01:30PM 33.1850 -82.6314 176° South 448 516 43,000  Level Atlanta Center
01:31PM 33.0639 -82.6211 176° South 442 509 43,000  Level Atlanta Center
01:32PM 32.8697 -82.6081 177° South 439 505 43,000  Level Jacksonville Center
01:33PM 32.7528 -82.5986 176° South 439 505 43,000  Level Jacksonville Center
01:34PM 32.6317 -82.5892 176° South 439 505 43,000  Level Jacksonville Center
01:35PM 32.5106 -82.5797 176° South 439 505 43,000  Level Jacksonville Center
01:36PM 32.4061 -82.5728 177° South 439 505 43,000  Level Jacksonville Center
01:37PM 32.2850 -82.5633 176° South 439 505 43,000  Level Jacksonville Center
01:38PM 32.1619 -82.5539 176° South 439 505 43,000  Level Jacksonville Center
01:39PM 32.0408 -82.5419 175° South 439 505 43,000  Level Jacksonville Center
01:40PM 31.9197 -82.5353 177° South 444 511 43,000  Level Jacksonville Center
01:41PM 31.7964 -82.5258 176° South 444 511 43,000  Level Jacksonville Center
01:42PM 31.6753 -82.5192 177° South 439 505 43,000  Level Jacksonville Center
01:43PM 31.5522 -82.5075 175° South 445 512 43,000  Level Jacksonville Center
01:44PM 31.4247 -82.5128 182° South 445 512 43,000  Level Jacksonville Center
01:45PM 31.2869 -82.5231 184° South 450 518 43,000  Level Jacksonville Center
01:46PM 31.1639 -82.5258 181° South 450 518 43,000 -480 Level Jacksonville Center
01:47PM 31.0386 -82.5336 183° South 450 518 42,100 -1,080 Descending Jacksonville Center
01:48PM 30.9111 -82.5392 182° South 455 524 40,900 -1,260 Descending Jacksonville Center
01:49PM 30.7858 -82.5444 182° South 455 524 39,600 -1,320 Descending Jacksonville Center
01:50PM 30.6647 -82.5472 181° South 455 524 38,300 -840 Descending Jacksonville Center
01:51PM 30.5417 -82.5550 183° South 455 524 38,000 -180 Descending Jacksonville Center
01:52PM 30.4183 -82.5242 168° South 450 518 38,000  Level Jacksonville Center
01:53PM 30.3053 -82.4353 146° Southeast 450 518 38,000 -300 Level Jacksonville Center
01:54PM 30.1944 -82.3447 145° Southeast 471 542 37,500 -540 Descending Jacksonville Center
01:55PM 30.0875 -82.2419 140° Southeast 493 567 37,000 -300 Descending Jacksonville Center
01:56PM 29.9722 -82.1636 150° Southeast 498 573 37,000 -300 Level Jacksonville Center
01:57PM 29.8617 -82.1933 193° South 421 484 36,400 -1,980 Descending Jacksonville Center
01:58PM 29.7617 -82.2489 206° Southwest 386 444 33,100 -3,600 Descending Jacksonville Center
01:59PM 29.6578 -82.3142 209° Southwest 401 461 29,200 -3,000 Descending Jacksonville Center
02:00PM 29.5492 -82.3531 197° South 428 493 27,100 -1,620 Descending Jacksonville Center
02:01PM 29.4219 -82.3394 175° South 445 512 26,000 -1,560 Descending Jacksonville Center
02:02PM 29.2925 -82.3258 175° South 450 518 24,000 -2,400 Descending Jacksonville Center
02:03PM 29.1775 -82.3100 173° South 443 510 21,200 -2,700 Descending Jacksonville Center
02:04PM 29.0689 -82.2964 174° South 413 475 18,700 -2,280 Descending Jacksonville Center
02:05PM 28.9667 -82.2850 174° South 385 443 16,700 -2,100 Descending Jacksonville Center
02:06PM 28.8789 -82.2761 175° South 352 405 14,600 -1,500 Descending Jacksonville Center
02:08PM 28.7167 -82.2500 172° South 309 356 12,700 -1,260 Descending Tampa TRACON
02:09PM 28.6500 -82.2500 180° South 297 342 11,400 -1,680 Descending Tampa TRACON
02:10PM 28.5667 -82.2500 180° South 291 335 9,700 -1,860 Descending Tampa TRACON
02:11PM 28.5000 -82.2500 180° South 281 323 7,900 -1,380 Descending Tampa TRACON
02:12PM 28.4167 -82.2500 180° South 275 316 7,000 -480 Descending Tampa TRACON
02:13PM 28.3333 -82.2667 190° South 276 318 7,000 -180 Level Tampa TRACON
02:14PM 28.3000 -82.3333 240° Southwest 275 316 6,700 -900 Descending Tampa TRACON
02:15PM 28.2833 -82.4167 257° West 276 318 5,300 -1,320 Descending Tampa TRACON
02:16PM 28.2167 -82.4667 213° Southwest 276 318 4,100 -1,200 Descending Tampa TRACON
02:17PM 28.1500 -82.5000 204° Southwest 253 291 3,000 -1,140 Descending Tampa TRACON